sensor_id;sensor_type;location;lat;lon;timestamp;P1;durP1;ratioP1;P2;durP2;ratioP2
69542;SDS011;56762;49.494;11.768;2022-08-02T00:00:38;4.17;;;2.07;;
69542;SDS011;56762;49.494;11.768;2022-08-02T00:03:10;4.38;;;1.70;;
69542;SDS011;56762;49.494;11.768;2022-08-02T00:05:38;3.42;;;1.95;;
69542;SDS011;56762;49.494;11.768;2022-08-02T00:08:06;3.05;;;1.85;;
69542;SDS011;56762;49.494;11.768;2022-08-02T00:10:35;3.78;;;2.20;;
69542;SDS011;56762;49.494;11.768;2022-08-02T00:13:04;4.20;;;2.17;;
69542;SDS011;56762;49.494;11.768;2022-08-02T00:15:32;3.25;;;1.90;;
69542;SDS011;56762;49.494;11.768;2022-08-02T00:18:00;5.22;;;2.33;;
69542;SDS011;56762;49.494;11.768;2022-08-02T00:20:28;4.18;;;2.60;;
69542;SDS011;56762;49.494;11.768;2022-08-02T00:22:56;3.33;;;2.05;;
69542;SDS011;56762;49.494;11.768;2022-08-02T00:25:24;3.27;;;2.10;;
69542;SDS011;56762;49.494;11.768;2022-08-02T00:27:53;3.78;;;2.38;;
69542;SDS011;56762;49.494;11.768;2022-08-02T00:30:21;3.25;;;2.15;;
69542;SDS011;56762;49.494;11.768;2022-08-02T00:32:49;2.60;;;1.73;;
69542;SDS011;56762;49.494;11.768;2022-08-02T00:35:20;3.05;;;1.90;;
69542;SDS011;56762;49.494;11.768;2022-08-02T00:37:48;3.20;;;1.87;;
69542;SDS011;56762;49.494;11.768;2022-08-02T00:40:19;4.10;;;2.08;;
69542;SDS011;56762;49.494;11.768;2022-08-02T00:43:00;3.58;;;2.20;;
69542;SDS011;56762;49.494;11.768;2022-08-02T00:45:32;3.53;;;2.35;;
69542;SDS011;56762;49.494;11.768;2022-08-02T00:48:21;3.95;;;2.20;;
69542;SDS011;56762;49.494;11.768;2022-08-02T00:50:49;3.20;;;1.87;;
69542;SDS011;56762;49.494;11.768;2022-08-02T00:53:17;4.25;;;2.10;;
69542;SDS011;56762;49.494;11.768;2022-08-02T00:55:45;3.45;;;2.28;;
69542;SDS011;56762;49.494;11.768;2022-08-02T00:58:16;4.18;;;2.05;;
69542;SDS011;56762;49.494;11.768;2022-08-02T01:00:46;3.70;;;2.00;;
69542;SDS011;56762;49.494;11.768;2022-08-02T01:03:14;3.47;;;1.87;;
69542;SDS011;56762;49.494;11.768;2022-08-02T01:05:43;3.33;;;2.05;;
69542;SDS011;56762;49.494;11.768;2022-08-02T01:08:31;3.97;;;2.40;;
69542;SDS011;56762;49.494;11.768;2022-08-02T01:10:59;4.60;;;2.63;;
69542;SDS011;56762;49.494;11.768;2022-08-02T01:13:29;3.53;;;2.42;;
69542;SDS011;56762;49.494;11.768;2022-08-02T01:15:59;3.50;;;2.00;;
69542;SDS011;56762;49.494;11.768;2022-08-02T01:18:37;3.88;;;2.20;;
69542;SDS011;56762;49.494;11.768;2022-08-02T01:21:12;3.00;;;2.00;;
69542;SDS011;56762;49.494;11.768;2022-08-02T01:23:52;3.75;;;2.20;;
69542;SDS011;56762;49.494;11.768;2022-08-02T01:29:19;3.90;;;2.33;;
69542;SDS011;56762;49.494;11.768;2022-08-02T01:31:53;3.97;;;2.58;;
69542;SDS011;56762;49.494;11.768;2022-08-02T01:34:29;3.25;;;2.17;;
69542;SDS011;56762;49.494;11.768;2022-08-02T01:37:01;2.95;;;1.85;;
69542;SDS011;56762;49.494;11.768;2022-08-02T01:39:34;3.50;;;2.30;;
69542;SDS011;56762;49.494;11.768;2022-08-02T01:42:05;4.23;;;2.47;;
69542;SDS011;56762;49.494;11.768;2022-08-02T01:44:37;4.43;;;2.50;;
69542;SDS011;56762;49.494;11.768;2022-08-02T01:47:08;4.78;;;2.47;;
69542;SDS011;56762;49.494;11.768;2022-08-02T01:49:44;3.78;;;2.28;;
69542;SDS011;56762;49.494;11.768;2022-08-02T01:52:15;4.10;;;2.30;;
69542;SDS011;56762;49.494;11.768;2022-08-02T01:54:53;4.00;;;2.23;;
69542;SDS011;56762;49.494;11.768;2022-08-02T01:57:29;3.67;;;2.20;;
69542;SDS011;56762;49.494;11.768;2022-08-02T02:00:09;4.18;;;2.70;;
69542;SDS011;56762;49.494;11.768;2022-08-02T02:02:41;3.45;;;2.25;;
69542;SDS011;56762;49.494;11.768;2022-08-02T02:05:11;3.20;;;1.92;;
69542;SDS011;56762;49.494;11.768;2022-08-02T02:07:41;3.07;;;1.90;;
69542;SDS011;56762;49.494;11.768;2022-08-02T02:10:13;4.15;;;2.30;;
69542;SDS011;56762;49.494;11.768;2022-08-02T02:12:45;5.28;;;2.50;;
69542;SDS011;56762;49.494;11.768;2022-08-02T02:15:17;5.15;;;2.50;;
69542;SDS011;56762;49.494;11.768;2022-08-02T02:17:48;5.32;;;2.70;;
69542;SDS011;56762;49.494;11.768;2022-08-02T02:20:38;4.57;;;2.30;;
69542;SDS011;56762;49.494;11.768;2022-08-02T02:23:06;4.93;;;2.42;;
69542;SDS011;56762;49.494;11.768;2022-08-02T02:25:34;3.45;;;2.13;;
69542;SDS011;56762;49.494;11.768;2022-08-02T02:28:11;3.05;;;2.00;;
69542;SDS011;56762;49.494;11.768;2022-08-02T02:30:45;4.28;;;2.25;;
69542;SDS011;56762;49.494;11.768;2022-08-02T02:33:16;4.30;;;2.00;;
69542;SDS011;56762;49.494;11.768;2022-08-02T02:35:45;3.00;;;2.10;;
69542;SDS011;56762;49.494;11.768;2022-08-02T02:38:17;3.50;;;1.83;;
69542;SDS011;56762;49.494;11.768;2022-08-02T02:40:47;4.32;;;2.40;;
69542;SDS011;56762;49.494;11.768;2022-08-02T02:43:16;3.42;;;2.08;;
69542;SDS011;56762;49.494;11.768;2022-08-02T02:45:45;3.57;;;2.40;;
69542;SDS011;56762;49.494;11.768;2022-08-02T02:48:14;3.17;;;2.17;;
69542;SDS011;56762;49.494;11.768;2022-08-02T02:50:43;3.42;;;2.00;;
69542;SDS011;56762;49.494;11.768;2022-08-02T02:53:12;4.28;;;2.60;;
69542;SDS011;56762;49.494;11.768;2022-08-02T02:55:46;3.97;;;2.00;;
69542;SDS011;56762;49.494;11.768;2022-08-02T02:58:27;4.37;;;2.43;;
69542;SDS011;56762;49.494;11.768;2022-08-02T03:00:57;4.35;;;2.30;;
69542;SDS011;56762;49.494;11.768;2022-08-02T03:03:43;3.90;;;2.15;;
69542;SDS011;56762;49.494;11.768;2022-08-02T03:06:11;4.30;;;2.00;;
69542;SDS011;56762;49.494;11.768;2022-08-02T03:08:41;4.80;;;2.63;;
69542;SDS011;56762;49.494;11.768;2022-08-02T03:11:09;4.43;;;2.20;;
69542;SDS011;56762;49.494;11.768;2022-08-02T03:13:38;3.55;;;2.00;;
69542;SDS011;56762;49.494;11.768;2022-08-02T03:16:08;3.50;;;2.03;;
69542;SDS011;56762;49.494;11.768;2022-08-02T03:18:38;4.18;;;2.03;;
69542;SDS011;56762;49.494;11.768;2022-08-02T03:21:08;3.22;;;1.73;;
69542;SDS011;56762;49.494;11.768;2022-08-02T03:23:39;3.77;;;2.17;;
69542;SDS011;56762;49.494;11.768;2022-08-02T03:26:08;3.72;;;2.00;;
69542;SDS011;56762;49.494;11.768;2022-08-02T03:28:37;3.97;;;2.20;;
69542;SDS011;56762;49.494;11.768;2022-08-02T03:31:07;4.82;;;2.33;;
69542;SDS011;56762;49.494;11.768;2022-08-02T03:33:37;3.83;;;2.15;;
69542;SDS011;56762;49.494;11.768;2022-08-02T03:36:10;3.43;;;2.17;;
69542;SDS011;56762;49.494;11.768;2022-08-02T03:38:40;3.65;;;2.30;;
69542;SDS011;56762;49.494;11.768;2022-08-02T03:41:10;3.00;;;1.70;;
69542;SDS011;56762;49.494;11.768;2022-08-02T03:43:40;4.28;;;2.33;;
69542;SDS011;56762;49.494;11.768;2022-08-02T03:46:10;4.22;;;2.20;;
69542;SDS011;56762;49.494;11.768;2022-08-02T03:48:40;4.03;;;2.07;;
69542;SDS011;56762;49.494;11.768;2022-08-02T03:51:08;5.90;;;2.58;;
69542;SDS011;56762;49.494;11.768;2022-08-02T03:53:37;4.95;;;2.30;;
69542;SDS011;56762;49.494;11.768;2022-08-02T03:56:05;3.72;;;2.20;;
69542;SDS011;56762;49.494;11.768;2022-08-02T03:58:34;3.92;;;2.30;;
69542;SDS011;56762;49.494;11.768;2022-08-02T04:01:01;3.80;;;2.40;;
69542;SDS011;56762;49.494;11.768;2022-08-02T04:03:31;5.22;;;2.75;;
69542;SDS011;56762;49.494;11.768;2022-08-02T04:05:59;4.82;;;2.92;;
69542;SDS011;56762;49.494;11.768;2022-08-02T04:08:29;4.38;;;2.85;;
69542;SDS011;56762;49.494;11.768;2022-08-02T04:11:03;4.95;;;2.65;;
69542;SDS011;56762;49.494;11.768;2022-08-02T04:13:49;3.63;;;2.10;;
69542;SDS011;56762;49.494;11.768;2022-08-02T04:16:22;4.10;;;2.40;;
69542;SDS011;56762;49.494;11.768;2022-08-02T04:18:57;4.10;;;2.20;;
69542;SDS011;56762;49.494;11.768;2022-08-02T04:21:30;3.95;;;2.33;;
69542;SDS011;56762;49.494;11.768;2022-08-02T04:24:17;3.53;;;2.10;;
69542;SDS011;56762;49.494;11.768;2022-08-02T04:26:50;4.23;;;2.30;;
69542;SDS011;56762;49.494;11.768;2022-08-02T04:29:23;4.18;;;2.50;;
69542;SDS011;56762;49.494;11.768;2022-08-02T04:31:52;3.40;;;1.95;;
69542;SDS011;56762;49.494;11.768;2022-08-02T04:34:22;4.72;;;2.30;;
69542;SDS011;56762;49.494;11.768;2022-08-02T04:36:50;5.07;;;2.53;;
69542;SDS011;56762;49.494;11.768;2022-08-02T04:39:18;3.90;;;2.13;;
69542;SDS011;56762;49.494;11.768;2022-08-02T04:41:46;5.40;;;2.60;;
69542;SDS011;56762;49.494;11.768;2022-08-02T04:44:19;6.03;;;2.35;;
69542;SDS011;56762;49.494;11.768;2022-08-02T04:46:47;5.18;;;2.60;;
69542;SDS011;56762;49.494;11.768;2022-08-02T04:49:16;5.47;;;2.50;;
69542;SDS011;56762;49.494;11.768;2022-08-02T04:51:45;3.80;;;2.20;;
69542;SDS011;56762;49.494;11.768;2022-08-02T04:54:13;3.58;;;2.15;;
69542;SDS011;56762;49.494;11.768;2022-08-02T04:56:42;4.30;;;2.63;;
69542;SDS011;56762;49.494;11.768;2022-08-02T04:59:10;4.93;;;2.50;;
69542;SDS011;56762;49.494;11.768;2022-08-02T05:01:38;3.70;;;2.10;;
69542;SDS011;56762;49.494;11.768;2022-08-02T05:04:07;4.43;;;2.70;;
69542;SDS011;56762;49.494;11.768;2022-08-02T05:06:35;3.75;;;2.25;;
69542;SDS011;56762;49.494;11.768;2022-08-02T05:09:05;5.05;;;2.63;;
69542;SDS011;56762;49.494;11.768;2022-08-02T05:11:32;4.70;;;2.85;;
69542;SDS011;56762;49.494;11.768;2022-08-02T05:14:02;3.45;;;2.25;;
69542;SDS011;56762;49.494;11.768;2022-08-02T05:16:30;4.30;;;2.90;;
69542;SDS011;56762;49.494;11.768;2022-08-02T05:18:59;5.25;;;3.10;;
69542;SDS011;56762;49.494;11.768;2022-08-02T05:21:28;5.13;;;3.10;;
69542;SDS011;56762;49.494;11.768;2022-08-02T05:23:57;5.40;;;2.90;;
69542;SDS011;56762;49.494;11.768;2022-08-02T05:26:26;4.22;;;2.72;;
69542;SDS011;56762;49.494;11.768;2022-08-02T05:28:54;5.53;;;2.67;;
69542;SDS011;56762;49.494;11.768;2022-08-02T05:31:22;4.82;;;2.72;;
69542;SDS011;56762;49.494;11.768;2022-08-02T05:33:50;4.00;;;2.38;;
69542;SDS011;56762;49.494;11.768;2022-08-02T05:36:19;5.15;;;2.38;;
69542;SDS011;56762;49.494;11.768;2022-08-02T05:38:47;3.90;;;2.33;;
69542;SDS011;56762;49.494;11.768;2022-08-02T05:41:16;5.37;;;3.00;;
69542;SDS011;56762;49.494;11.768;2022-08-02T05:43:47;4.50;;;2.85;;
69542;SDS011;56762;49.494;11.768;2022-08-02T05:46:14;4.55;;;2.92;;
69542;SDS011;56762;49.494;11.768;2022-08-02T05:48:43;5.75;;;3.05;;
69542;SDS011;56762;49.494;11.768;2022-08-02T05:51:14;6.53;;;3.63;;
69542;SDS011;56762;49.494;11.768;2022-08-02T05:53:48;4.93;;;3.17;;
69542;SDS011;56762;49.494;11.768;2022-08-02T05:56:24;7.57;;;3.47;;
69542;SDS011;56762;49.494;11.768;2022-08-02T05:59:02;5.40;;;3.38;;
69542;SDS011;56762;49.494;11.768;2022-08-02T06:01:31;6.00;;;4.15;;
69542;SDS011;56762;49.494;11.768;2022-08-02T06:04:04;4.90;;;2.97;;
69542;SDS011;56762;49.494;11.768;2022-08-02T06:06:33;5.20;;;3.30;;
69542;SDS011;56762;49.494;11.768;2022-08-02T06:09:02;4.05;;;2.60;;
69542;SDS011;56762;49.494;11.768;2022-08-02T06:11:34;5.05;;;2.80;;
69542;SDS011;56762;49.494;11.768;2022-08-02T06:14:05;5.43;;;2.72;;
69542;SDS011;56762;49.494;11.768;2022-08-02T06:16:33;4.68;;;2.75;;
69542;SDS011;56762;49.494;11.768;2022-08-02T06:19:07;5.27;;;2.90;;
69542;SDS011;56762;49.494;11.768;2022-08-02T06:21:36;4.32;;;2.58;;
69542;SDS011;56762;49.494;11.768;2022-08-02T06:24:26;4.18;;;2.85;;
69542;SDS011;56762;49.494;11.768;2022-08-02T06:26:54;5.80;;;3.33;;
69542;SDS011;56762;49.494;11.768;2022-08-02T06:29:24;5.97;;;3.08;;
69542;SDS011;56762;49.494;11.768;2022-08-02T06:31:52;3.87;;;2.37;;
69542;SDS011;56762;49.494;11.768;2022-08-02T06:34:20;3.60;;;2.03;;
69542;SDS011;56762;49.494;11.768;2022-08-02T06:36:49;3.85;;;2.45;;
69542;SDS011;56762;49.494;11.768;2022-08-02T06:39:23;3.72;;;2.20;;
69542;SDS011;56762;49.494;11.768;2022-08-02T06:42:02;4.85;;;2.17;;
69542;SDS011;56762;49.494;11.768;2022-08-02T06:44:40;3.90;;;2.17;;
69542;SDS011;56762;49.494;11.768;2022-08-02T06:47:15;3.72;;;2.45;;
69542;SDS011;56762;49.494;11.768;2022-08-02T06:49:43;4.93;;;2.60;;
69542;SDS011;56762;49.494;11.768;2022-08-02T06:52:20;3.78;;;2.35;;
69542;SDS011;56762;49.494;11.768;2022-08-02T06:54:55;3.70;;;2.10;;
69542;SDS011;56762;49.494;11.768;2022-08-02T06:57:23;3.07;;;1.80;;
69542;SDS011;56762;49.494;11.768;2022-08-02T06:59:53;3.47;;;1.85;;
69542;SDS011;56762;49.494;11.768;2022-08-02T07:02:21;2.42;;;1.50;;
69542;SDS011;56762;49.494;11.768;2022-08-02T07:04:49;3.05;;;1.50;;
69542;SDS011;56762;49.494;11.768;2022-08-02T07:07:17;2.67;;;1.40;;
69542;SDS011;56762;49.494;11.768;2022-08-02T07:09:45;3.50;;;1.33;;
69542;SDS011;56762;49.494;11.768;2022-08-02T07:12:26;2.60;;;1.55;;
69542;SDS011;56762;49.494;11.768;2022-08-02T07:14:57;3.20;;;1.60;;
69542;SDS011;56762;49.494;11.768;2022-08-02T07:17:27;2.58;;;1.20;;
69542;SDS011;56762;49.494;11.768;2022-08-02T07:19:55;2.88;;;1.58;;
69542;SDS011;56762;49.494;11.768;2022-08-02T07:22:24;4.10;;;1.80;;
69542;SDS011;56762;49.494;11.768;2022-08-02T07:24:53;2.42;;;1.42;;
69542;SDS011;56762;49.494;11.768;2022-08-02T07:27:22;2.70;;;1.67;;
69542;SDS011;56762;49.494;11.768;2022-08-02T07:29:50;1.90;;;1.20;;
69542;SDS011;56762;49.494;11.768;2022-08-02T07:32:21;3.25;;;1.70;;
69542;SDS011;56762;49.494;11.768;2022-08-02T07:34:50;2.10;;;1.30;;
69542;SDS011;56762;49.494;11.768;2022-08-02T07:37:20;2.42;;;1.40;;
69542;SDS011;56762;49.494;11.768;2022-08-02T07:40:10;3.03;;;1.65;;
69542;SDS011;56762;49.494;11.768;2022-08-02T07:42:45;2.38;;;1.50;;
69542;SDS011;56762;49.494;11.768;2022-08-02T07:45:14;2.22;;;1.60;;
69542;SDS011;56762;49.494;11.768;2022-08-02T07:47:44;2.60;;;1.63;;
69542;SDS011;56762;49.494;11.768;2022-08-02T07:50:12;2.45;;;1.70;;
69542;SDS011;56762;49.494;11.768;2022-08-02T07:52:42;4.20;;;2.10;;
69542;SDS011;56762;49.494;11.768;2022-08-02T07:55:11;4.25;;;1.95;;
69542;SDS011;56762;49.494;11.768;2022-08-02T07:57:41;2.47;;;1.60;;
69542;SDS011;56762;49.494;11.768;2022-08-02T08:00:12;2.47;;;1.57;;
69542;SDS011;56762;49.494;11.768;2022-08-02T08:02:41;2.13;;;1.55;;
69542;SDS011;56762;49.494;11.768;2022-08-02T08:05:11;2.85;;;1.80;;
69542;SDS011;56762;49.494;11.768;2022-08-02T08:07:39;3.13;;;1.75;;
69542;SDS011;56762;49.494;11.768;2022-08-02T08:10:07;2.33;;;1.60;;
69542;SDS011;56762;49.494;11.768;2022-08-02T08:12:35;2.83;;;1.83;;
69542;SDS011;56762;49.494;11.768;2022-08-02T08:15:03;3.28;;;2.20;;
69542;SDS011;56762;49.494;11.768;2022-08-02T08:17:32;3.10;;;1.88;;
69542;SDS011;56762;49.494;11.768;2022-08-02T08:20:00;3.13;;;2.10;;
69542;SDS011;56762;49.494;11.768;2022-08-02T08:22:30;3.10;;;1.77;;
69542;SDS011;56762;49.494;11.768;2022-08-02T08:24:57;3.40;;;1.80;;
69542;SDS011;56762;49.494;11.768;2022-08-02T08:27:25;3.33;;;1.90;;
69542;SDS011;56762;49.494;11.768;2022-08-02T08:29:53;2.85;;;1.60;;
69542;SDS011;56762;49.494;11.768;2022-08-02T08:32:21;4.13;;;1.85;;
69542;SDS011;56762;49.494;11.768;2022-08-02T08:34:50;2.65;;;1.73;;
69542;SDS011;56762;49.494;11.768;2022-08-02T08:37:18;2.50;;;1.63;;
69542;SDS011;56762;49.494;11.768;2022-08-02T08:39:47;3.63;;;1.77;;
69542;SDS011;56762;49.494;11.768;2022-08-02T08:42:24;2.28;;;1.70;;
69542;SDS011;56762;49.494;11.768;2022-08-02T08:44:53;3.38;;;1.80;;
69542;SDS011;56762;49.494;11.768;2022-08-02T08:47:24;2.88;;;1.85;;
69542;SDS011;56762;49.494;11.768;2022-08-02T08:50:00;2.37;;;1.67;;
69542;SDS011;56762;49.494;11.768;2022-08-02T08:52:30;2.65;;;1.90;;
69542;SDS011;56762;49.494;11.768;2022-08-02T08:55:04;4.78;;;2.42;;
69542;SDS011;56762;49.494;11.768;2022-08-02T08:57:35;5.18;;;3.53;;
69542;SDS011;56762;49.494;11.768;2022-08-02T09:00:08;5.32;;;2.45;;
69542;SDS011;56762;49.494;11.768;2022-08-02T09:02:38;2.90;;;1.90;;
69542;SDS011;56762;49.494;11.768;2022-08-02T09:05:08;2.90;;;1.80;;
69542;SDS011;56762;49.494;11.768;2022-08-02T09:07:37;3.17;;;1.80;;
69542;SDS011;56762;49.494;11.768;2022-08-02T09:10:31;2.60;;;1.95;;
69542;SDS011;56762;49.494;11.768;2022-08-02T09:13:05;2.72;;;1.92;;
69542;SDS011;56762;49.494;11.768;2022-08-02T09:15:59;2.87;;;2.00;;
69542;SDS011;56762;49.494;11.768;2022-08-02T09:18:39;3.95;;;1.80;;
69542;SDS011;56762;49.494;11.768;2022-08-02T09:21:12;3.33;;;1.92;;
69542;SDS011;56762;49.494;11.768;2022-08-02T09:23:42;3.47;;;1.80;;
69542;SDS011;56762;49.494;11.768;2022-08-02T09:26:13;3.97;;;1.98;;
69542;SDS011;56762;49.494;11.768;2022-08-02T09:28:43;3.43;;;2.17;;
69542;SDS011;56762;49.494;11.768;2022-08-02T09:31:13;3.05;;;2.00;;
69542;SDS011;56762;49.494;11.768;2022-08-02T09:33:44;3.42;;;2.30;;
69542;SDS011;56762;49.494;11.768;2022-08-02T09:36:18;2.80;;;1.83;;
69542;SDS011;56762;49.494;11.768;2022-08-02T09:38:52;2.95;;;2.08;;
69542;SDS011;56762;49.494;11.768;2022-08-02T09:41:24;3.00;;;1.97;;
69542;SDS011;56762;49.494;11.768;2022-08-02T09:43:54;3.58;;;2.10;;
69542;SDS011;56762;49.494;11.768;2022-08-02T09:46:32;3.22;;;2.30;;
69542;SDS011;56762;49.494;11.768;2022-08-02T09:49:04;3.20;;;2.08;;
69542;SDS011;56762;49.494;11.768;2022-08-02T09:51:34;3.78;;;2.20;;
69542;SDS011;56762;49.494;11.768;2022-08-02T09:54:03;2.93;;;2.10;;
69542;SDS011;56762;49.494;11.768;2022-08-02T09:56:40;3.30;;;2.05;;
69542;SDS011;56762;49.494;11.768;2022-08-02T09:59:10;3.60;;;2.10;;
69542;SDS011;56762;49.494;11.768;2022-08-02T10:01:38;3.35;;;1.90;;
69542;SDS011;56762;49.494;11.768;2022-08-02T10:04:18;2.40;;;1.88;;
69542;SDS011;56762;49.494;11.768;2022-08-02T10:06:50;2.73;;;1.90;;
69542;SDS011;56762;49.494;11.768;2022-08-02T10:09:19;3.58;;;2.08;;
69542;SDS011;56762;49.494;11.768;2022-08-02T10:11:49;3.25;;;2.00;;
69542;SDS011;56762;49.494;11.768;2022-08-02T10:14:17;3.33;;;2.30;;
69542;SDS011;56762;49.494;11.768;2022-08-02T10:16:48;3.20;;;1.75;;
69542;SDS011;56762;49.494;11.768;2022-08-02T10:19:19;3.27;;;1.87;;
69542;SDS011;56762;49.494;11.768;2022-08-02T10:22:08;4.20;;;2.17;;
69542;SDS011;56762;49.494;11.768;2022-08-02T10:24:38;3.90;;;2.10;;
69542;SDS011;56762;49.494;11.768;2022-08-02T10:27:15;3.63;;;1.88;;
69542;SDS011;56762;49.494;11.768;2022-08-02T10:29:46;3.17;;;2.40;;
69542;SDS011;56762;49.494;11.768;2022-08-02T10:32:22;2.93;;;2.00;;
69542;SDS011;56762;49.494;11.768;2022-08-02T10:34:53;3.40;;;2.00;;
69542;SDS011;56762;49.494;11.768;2022-08-02T10:37:43;3.00;;;1.90;;
69542;SDS011;56762;49.494;11.768;2022-08-02T10:40:15;3.03;;;2.13;;
69542;SDS011;56762;49.494;11.768;2022-08-02T10:42:54;2.58;;;2.08;;
69542;SDS011;56762;49.494;11.768;2022-08-02T10:45:26;2.40;;;1.83;;
69542;SDS011;56762;49.494;11.768;2022-08-02T10:47:55;3.05;;;2.28;;
69542;SDS011;56762;49.494;11.768;2022-08-02T10:53:29;3.70;;;2.10;;
69542;SDS011;56762;49.494;11.768;2022-08-02T10:55:58;2.33;;;1.73;;
69542;SDS011;56762;49.494;11.768;2022-08-02T10:58:29;3.60;;;1.93;;
69542;SDS011;56762;49.494;11.768;2022-08-02T11:00:58;2.47;;;1.80;;
69542;SDS011;56762;49.494;11.768;2022-08-02T11:03:37;3.65;;;2.20;;
69542;SDS011;56762;49.494;11.768;2022-08-02T11:06:07;2.83;;;2.08;;
69542;SDS011;56762;49.494;11.768;2022-08-02T11:11:58;3.70;;;1.80;;
69542;SDS011;56762;49.494;11.768;2022-08-02T11:14:29;4.30;;;2.00;;
69542;SDS011;56762;49.494;11.768;2022-08-02T11:17:05;4.13;;;1.85;;
69542;SDS011;56762;49.494;11.768;2022-08-02T11:22:41;2.88;;;1.98;;
69542;SDS011;56762;49.494;11.768;2022-08-02T11:28:19;2.80;;;1.70;;
69542;SDS011;56762;49.494;11.768;2022-08-02T11:30:56;2.58;;;1.77;;
69542;SDS011;56762;49.494;11.768;2022-08-02T11:33:29;4.00;;;2.40;;
69542;SDS011;56762;49.494;11.768;2022-08-02T11:36:01;2.97;;;2.25;;
69542;SDS011;56762;49.494;11.768;2022-08-02T11:38:31;2.97;;;2.10;;
69542;SDS011;56762;49.494;11.768;2022-08-02T11:40:59;2.38;;;1.73;;
69542;SDS011;56762;49.494;11.768;2022-08-02T11:43:34;3.95;;;2.05;;
69542;SDS011;56762;49.494;11.768;2022-08-02T11:46:10;2.75;;;1.90;;
69542;SDS011;56762;49.494;11.768;2022-08-02T11:48:40;3.75;;;1.88;;
69542;SDS011;56762;49.494;11.768;2022-08-02T11:51:10;2.47;;;1.77;;
69542;SDS011;56762;49.494;11.768;2022-08-02T11:53:41;2.75;;;1.48;;
69542;SDS011;56762;49.494;11.768;2022-08-02T11:56:11;3.42;;;1.80;;
69542;SDS011;56762;49.494;11.768;2022-08-02T11:58:59;2.40;;;1.70;;
69542;SDS011;56762;49.494;11.768;2022-08-02T12:01:30;2.60;;;1.80;;
69542;SDS011;56762;49.494;11.768;2022-08-02T12:04:14;2.70;;;1.90;;
69542;SDS011;56762;49.494;11.768;2022-08-02T12:06:43;3.05;;;2.08;;
69542;SDS011;56762;49.494;11.768;2022-08-02T12:09:22;3.40;;;1.73;;
69542;SDS011;56762;49.494;11.768;2022-08-02T12:11:51;2.15;;;1.50;;
69542;SDS011;56762;49.494;11.768;2022-08-02T12:14:19;2.80;;;1.58;;
69542;SDS011;56762;49.494;11.768;2022-08-02T12:16:49;2.30;;;1.50;;
69542;SDS011;56762;49.494;11.768;2022-08-02T12:19:35;2.03;;;1.52;;
69542;SDS011;56762;49.494;11.768;2022-08-02T12:22:07;2.13;;;1.20;;
69542;SDS011;56762;49.494;11.768;2022-08-02T12:24:42;2.55;;;2.00;;
69542;SDS011;56762;49.494;11.768;2022-08-02T12:27:26;2.40;;;1.63;;
69542;SDS011;56762;49.494;11.768;2022-08-02T12:29:59;3.33;;;1.40;;
69542;SDS011;56762;49.494;11.768;2022-08-02T12:32:30;2.30;;;1.80;;
69542;SDS011;56762;49.494;11.768;2022-08-02T12:35:05;2.10;;;1.55;;
69542;SDS011;56762;49.494;11.768;2022-08-02T12:37:37;2.70;;;1.60;;
69542;SDS011;56762;49.494;11.768;2022-08-02T12:40:18;3.15;;;1.60;;
69542;SDS011;56762;49.494;11.768;2022-08-02T12:42:51;3.30;;;1.30;;
69542;SDS011;56762;49.494;11.768;2022-08-02T12:45:21;2.80;;;1.25;;
69542;SDS011;56762;49.494;11.768;2022-08-02T12:47:52;2.15;;;1.45;;
69542;SDS011;56762;49.494;11.768;2022-08-02T12:50:23;2.00;;;1.20;;
69542;SDS011;56762;49.494;11.768;2022-08-02T12:53:05;2.08;;;1.42;;
69542;SDS011;56762;49.494;11.768;2022-08-02T12:55:34;2.13;;;1.20;;
69542;SDS011;56762;49.494;11.768;2022-08-02T12:58:26;2.65;;;1.42;;
69542;SDS011;56762;49.494;11.768;2022-08-02T13:00:55;2.20;;;1.35;;
69542;SDS011;56762;49.494;11.768;2022-08-02T13:03:26;2.28;;;1.15;;
69542;SDS011;56762;49.494;11.768;2022-08-02T13:06:15;3.75;;;1.70;;
69542;SDS011;56762;49.494;11.768;2022-08-02T13:09:10;2.27;;;1.57;;
69542;SDS011;56762;49.494;11.768;2022-08-02T13:11:39;3.38;;;1.50;;
69542;SDS011;56762;49.494;11.768;2022-08-02T13:14:08;2.70;;;1.70;;
69542;SDS011;56762;49.494;11.768;2022-08-02T13:16:35;1.92;;;1.17;;
69542;SDS011;56762;49.494;11.768;2022-08-02T13:19:05;2.25;;;1.40;;
69542;SDS011;56762;49.494;11.768;2022-08-02T13:21:33;2.00;;;1.20;;
69542;SDS011;56762;49.494;11.768;2022-08-02T13:24:20;1.55;;;1.05;;
69542;SDS011;56762;49.494;11.768;2022-08-02T13:27:04;2.72;;;1.30;;
69542;SDS011;56762;49.494;11.768;2022-08-02T13:29:34;2.30;;;1.20;;
69542;SDS011;56762;49.494;11.768;2022-08-02T13:32:02;2.97;;;1.30;;
69542;SDS011;56762;49.494;11.768;2022-08-02T13:34:31;2.67;;;1.13;;
69542;SDS011;56762;49.494;11.768;2022-08-02T13:36:59;1.90;;;1.50;;
69542;SDS011;56762;49.494;11.768;2022-08-02T13:39:29;2.03;;;1.27;;
69542;SDS011;56762;49.494;11.768;2022-08-02T13:41:56;2.50;;;1.30;;
69542;SDS011;56762;49.494;11.768;2022-08-02T13:44:24;2.58;;;1.30;;
69542;SDS011;56762;49.494;11.768;2022-08-02T13:46:52;2.93;;;1.20;;
69542;SDS011;56762;49.494;11.768;2022-08-02T13:49:20;1.85;;;1.40;;
69542;SDS011;56762;49.494;11.768;2022-08-02T13:52:10;1.80;;;1.25;;
69542;SDS011;56762;49.494;11.768;2022-08-02T13:54:39;1.67;;;1.10;;
69542;SDS011;56762;49.494;11.768;2022-08-02T13:57:06;2.53;;;1.30;;
69542;SDS011;56762;49.494;11.768;2022-08-02T13:59:34;1.60;;;1.20;;
69542;SDS011;56762;49.494;11.768;2022-08-02T14:02:22;2.05;;;1.27;;
69542;SDS011;56762;49.494;11.768;2022-08-02T14:04:50;2.05;;;1.35;;
69542;SDS011;56762;49.494;11.768;2022-08-02T14:07:22;2.25;;;1.23;;
69542;SDS011;56762;49.494;11.768;2022-08-02T14:09:51;2.50;;;1.17;;
69542;SDS011;56762;49.494;11.768;2022-08-02T14:12:19;1.87;;;1.27;;
69542;SDS011;56762;49.494;11.768;2022-08-02T14:14:47;2.70;;;1.52;;
69542;SDS011;56762;49.494;11.768;2022-08-02T14:17:14;1.95;;;1.25;;
69542;SDS011;56762;49.494;11.768;2022-08-02T14:19:44;1.90;;;1.27;;
69542;SDS011;56762;49.494;11.768;2022-08-02T14:22:12;1.75;;;1.40;;
69542;SDS011;56762;49.494;11.768;2022-08-02T14:24:41;2.30;;;1.50;;
69542;SDS011;56762;49.494;11.768;2022-08-02T14:27:09;2.00;;;1.15;;
69542;SDS011;56762;49.494;11.768;2022-08-02T14:29:38;1.88;;;1.48;;
69542;SDS011;56762;49.494;11.768;2022-08-02T14:32:06;3.65;;;1.52;;
69542;SDS011;56762;49.494;11.768;2022-08-02T14:34:35;1.95;;;1.27;;
69542;SDS011;56762;49.494;11.768;2022-08-02T14:37:03;2.47;;;1.30;;
69542;SDS011;56762;49.494;11.768;2022-08-02T14:39:31;2.13;;;1.30;;
69542;SDS011;56762;49.494;11.768;2022-08-02T14:42:21;2.30;;;1.40;;
69542;SDS011;56762;49.494;11.768;2022-08-02T14:44:49;2.38;;;1.55;;
69542;SDS011;56762;49.494;11.768;2022-08-02T14:47:17;1.58;;;1.25;;
69542;SDS011;56762;49.494;11.768;2022-08-02T14:49:45;2.57;;;1.27;;
69542;SDS011;56762;49.494;11.768;2022-08-02T14:52:15;2.45;;;1.20;;
69542;SDS011;56762;49.494;11.768;2022-08-02T14:54:43;1.98;;;0.90;;
69542;SDS011;56762;49.494;11.768;2022-08-02T14:57:12;2.13;;;1.30;;
69542;SDS011;56762;49.494;11.768;2022-08-02T14:59:41;1.83;;;1.15;;
69542;SDS011;56762;49.494;11.768;2022-08-02T15:02:11;2.00;;;1.20;;
69542;SDS011;56762;49.494;11.768;2022-08-02T15:04:40;2.10;;;1.13;;
69542;SDS011;56762;49.494;11.768;2022-08-02T15:07:09;1.77;;;1.30;;
69542;SDS011;56762;49.494;11.768;2022-08-02T15:09:37;3.08;;;1.30;;
69542;SDS011;56762;49.494;11.768;2022-08-02T15:12:05;1.77;;;1.38;;
69542;SDS011;56762;49.494;11.768;2022-08-02T15:14:34;2.60;;;1.07;;